EHKD/DHR METAR and TAF weather

Enter ICAO airport designator
Station Type Date Time Source
EHKD METAR 2022/12/05 15:25 UTC NOAA

EHKD 051525Z AUTO 03007KT 340V070 9999 FEW007 BKN010 OVC012 06/05 Q1020 GRN TEMPO SCT010 BKN012


Station Type Date Time Source
EHKD Decoded METAR 2022/12/05 15:25 UTC NOAA

De Kooy, Netherlands (EHKD) 52-55N 004-47E 14M
Dec 05, 2022 - 10:25 AM EST / 2022.12.05 1525 UTC
Wind: from the NNE (030 degrees) at 8 MPH (7 KT) (direction variable):0
Visibility: greater than 7 mile(s):0
Sky conditions: overcast
Temperature: 42 F (6 C)
Dew Point: 41 F (5 C)
Relative Humidity: 93%
Pressure (altimeter): 30.12 in. Hg (1020 hPa)
ob: EHKD 051525Z AUTO 03007KT 340V070 9999 FEW007 BKN010 OVC012 06/05 Q1020 GRN TEMPO SCT010 BKN012
cycle: 15

Station Type Date Time Source
EHKD TAF 2022/12/05 14:54 UTC NOAA

TAF TAF EHKD 051344Z 0514/0602 03007KT 9999 SCT015 BKN050
TEMPO 0514/0517 SCT012

Example: see airport list